createdAt,value
2018-11-01T00:00:19.578Z,75.00
2018-11-01T00:01:19.550Z,74.05
2018-11-01T00:02:19.523Z,73.57
2018-11-01T00:03:19.496Z,75.53
2018-11-01T00:04:19.470Z,74.49
2018-11-01T00:05:19.444Z,74.96
2018-11-01T00:06:19.419Z,77.71
2018-11-01T00:07:19.390Z,76.86
2018-11-01T00:08:19.364Z,75.34
2018-11-01T00:09:19.337Z,74.30
2018-11-01T00:10:19.310Z,73.16
2018-11-01T00:11:19.285Z,71.45
2018-11-01T00:12:19.256Z,70.31
2018-11-01T00:13:19.231Z,69.84
2018-11-01T00:14:19.204Z,70.50
2018-11-01T00:15:19.177Z,70.03
2018-11-01T00:16:19.149Z,70.98
2018-11-01T00:17:19.124Z,70.78
2018-11-01T00:18:19.097Z,71.64
2018-11-01T00:19:19.069Z,68.79
2018-11-01T00:20:19.042Z,65.28
2018-11-01T00:21:19.015Z,63.57
2018-11-01T00:22:18.989Z,64.05
2018-11-01T00:23:18.962Z,65.09
2018-11-01T00:24:18.935Z,64.81
2018-11-01T00:25:18.908Z,65.47
2018-11-01T00:26:18.880Z,67.27
2018-11-01T00:27:18.855Z,67.52
2018-11-01T00:28:18.828Z,66.86
2018-11-01T00:29:18.803Z,66.20
2018-11-01T00:30:18.773Z,65.25
2018-11-01T00:31:18.747Z,64.11
2018-11-01T00:32:18.721Z,64.49
2018-11-01T00:33:18.693Z,63.45
2018-11-01T00:34:18.665Z,63.17
2018-11-01T00:35:18.639Z,62.21
2018-11-01T00:36:18.611Z,62.02
2018-11-01T00:37:18.584Z,61.27
2018-11-01T00:38:18.557Z,59.94
2018-11-01T00:39:18.531Z,59.27
2018-11-01T00:40:18.503Z,58.99
2018-11-01T00:41:18.478Z,58.70
2018-11-01T00:42:18.448Z,56.99
2018-11-01T00:43:18.431Z,55.48
2018-11-01T00:44:18.394Z,55.67
2018-11-01T00:45:18.368Z,56.62
2018-11-01T00:46:18.341Z,55.76
2018-11-01T00:47:18.312Z,55.76
2018-11-01T00:48:18.292Z,58.42
2018-11-01T00:49:18.259Z,59.08
2018-11-01T00:50:18.230Z,57.57
2018-11-01T00:51:18.204Z,56.52
2018-11-01T00:52:18.177Z,54.72
2018-11-01T00:53:18.150Z,52.54
2018-11-01T00:54:18.122Z,51.68
2018-11-01T00:55:18.095Z,50.55
2018-11-01T00:56:18.067Z,50.64
2018-11-01T00:57:18.045Z,50.26
2018-11-01T00:58:18.013Z,50.83
2018-11-01T00:59:17.985Z,51.50
2018-11-01T01:00:17.958Z,50.64
2018-11-01T01:01:17.932Z,50.17
2018-11-01T01:02:17.904Z,50.26
2018-11-01T01:03:17.875Z,50.36
2018-11-01T01:04:17.849Z,52.26
2018-11-01T01:05:17.821Z,51.78
2018-11-01T01:06:17.793Z,50.93
2018-11-01T01:07:17.770Z,50.45
2018-11-01T01:08:17.743Z,51.12
2018-11-01T01:09:17.712Z,53.39
2018-11-01T01:10:17.684Z,52.45
2018-11-01T01:11:17.657Z,52.45
2018-11-01T01:12:17.636Z,50.36
2018-11-01T01:13:17.601Z,47.23
2018-11-01T01:14:17.574Z,47.71
2018-11-01T01:15:17.545Z,47.23
2018-11-01T01:16:17.518Z,47.71
2018-11-01T01:17:17.492Z,47.89
2018-11-01T01:18:17.466Z,47.04
2018-11-01T01:19:17.436Z,47.42
2018-11-01T01:20:17.417Z,47.42
2018-11-01T01:21:17.381Z,47.13
2018-11-01T01:22:17.354Z,46.75
2018-11-01T01:23:17.326Z,46.85
2018-11-01T01:24:17.306Z,46.37
2018-11-01T01:25:17.272Z,45.05
2018-11-01T01:26:17.246Z,45.71
2018-11-01T01:27:17.217Z,45.14
2018-11-01T01:28:17.189Z,44.85
2018-11-01T01:29:17.162Z,44.20
2018-11-01T01:30:17.133Z,44.10
2018-11-01T01:31:17.106Z,44.20
2018-11-01T01:32:17.079Z,44.10
2018-11-01T01:33:17.052Z,44.57
2018-11-01T01:34:17.024Z,45.43
2018-11-01T01:35:16.999Z,45.71
2018-11-01T01:36:16.968Z,46.66
2018-11-01T01:37:16.942Z,47.89
2018-11-01T01:38:16.913Z,46.75
2018-11-01T01:39:16.887Z,46.75
2018-11-01T01:40:16.859Z,46.75
2018-11-01T01:41:16.832Z,46.75
2018-11-01T01:42:16.804Z,46.66
2018-11-01T01:43:16.776Z,46.47
2018-11-01T01:44:16.749Z,45.14
2018-11-01T01:45:16.722Z,44.48
2018-11-01T01:46:16.693Z,45.71
2018-11-01T01:47:16.667Z,46.92
2018-11-01T01:48:16.639Z,47.68
2018-11-01T01:49:16.611Z,45.88
2018-11-01T01:50:16.610Z,44.74
2018-11-01T01:51:16.555Z,43.79
2018-11-01T01:52:16.528Z,42.11
2018-11-01T01:53:16.501Z,40.97
2018-11-01T01:54:16.472Z,40.69
2018-11-01T01:55:16.445Z,39.36
2018-11-01T01:56:16.419Z,37.93
2018-11-01T01:57:16.391Z,37.65
2018-11-01T01:58:16.362Z,37.74
2018-11-01T01:59:16.334Z,37.65
2018-11-01T02:00:16.308Z,37.55
2018-11-01T02:01:16.280Z,37.18
2018-11-01T02:02:16.252Z,37.27
2018-11-01T02:03:16.224Z,37.37
2018-11-01T02:04:16.198Z,37.74
2018-11-01T02:05:16.170Z,37.93
2018-11-01T02:06:16.142Z,37.74
2018-11-01T02:07:16.115Z,37.74
2018-11-01T02:08:16.086Z,37.55
2018-11-01T02:09:16.060Z,37.84
2018-11-01T02:10:16.034Z,37.84
2018-11-01T02:11:16.005Z,37.55
2018-11-01T02:12:15.975Z,37.27
2018-11-01T02:13:15.948Z,38.50
2018-11-01T02:14:15.920Z,38.89
2018-11-01T02:15:15.894Z,39.17
2018-11-01T02:16:15.865Z,40.12
2018-11-01T02:17:15.838Z,40.59
2018-11-01T02:18:15.812Z,40.88
2018-11-01T02:19:15.783Z,41.25
2018-11-01T02:20:15.755Z,40.97
2018-11-01T02:21:15.729Z,41.16
2018-11-01T02:22:15.700Z,41.25
2018-11-01T02:23:15.672Z,41.44
2018-11-01T02:24:15.645Z,42.11
2018-11-01T02:25:15.618Z,42.11
2018-11-01T02:26:15.591Z,41.92
2018-11-01T02:27:15.563Z,41.16
2018-11-01T02:28:15.536Z,41.35
2018-11-01T02:29:15.509Z,41.16
2018-11-01T02:30:15.481Z,41.16
2018-11-01T02:31:15.453Z,40.69
2018-11-01T02:32:15.426Z,40.69
2018-11-01T02:33:15.399Z,41.06
2018-11-01T02:34:15.372Z,40.78
2018-11-01T02:35:15.344Z,41.25
2018-11-01T02:36:15.317Z,40.69
2018-11-01T02:37:15.289Z,40.97
2018-11-01T02:38:15.388Z,39.36
2018-11-01T02:39:15.235Z,38.60
2018-11-01T02:40:15.208Z,38.12
2018-11-01T02:41:16.681Z,38.03
2018-11-01T02:42:15.153Z,38.69
2018-11-01T02:43:15.124Z,39.36
2018-11-01T02:44:15.098Z,39.73
2018-11-01T02:45:15.070Z,39.83
2018-11-01T02:46:15.043Z,39.54
2018-11-01T02:47:15.015Z,40.59
2018-11-01T02:48:14.987Z,40.50
2018-11-01T02:49:14.961Z,42.01
2018-11-01T02:50:14.933Z,44.20
2018-11-01T02:51:14.913Z,45.05
2018-11-01T02:52:14.881Z,44.38
2018-11-01T02:53:14.852Z,44.20
2018-11-01T02:54:14.824Z,44.29
2018-11-01T02:55:14.800Z,44.20
2018-11-01T02:56:14.770Z,44.20
2018-11-01T02:57:14.744Z,44.29
2018-11-01T02:58:14.715Z,44.67
2018-11-01T02:59:14.687Z,45.14
2018-11-01T03:00:14.659Z,44.67
2018-11-01T03:01:14.635Z,44.48
2018-11-01T03:02:14.606Z,43.91
2018-11-01T03:03:14.580Z,43.62
2018-11-01T03:04:14.551Z,44.85
2018-11-01T03:05:14.523Z,46.94
2018-11-01T03:06:14.497Z,46.75
2018-11-01T03:07:14.471Z,48.18
2018-11-01T03:08:14.444Z,48.84
2018-11-01T03:09:14.414Z,47.71
2018-11-01T03:10:14.400Z,46.00
2018-11-01T03:11:14.358Z,45.62
2018-11-01T03:12:14.331Z,44.20
2018-11-01T03:13:14.307Z,42.30
2018-11-01T03:14:14.276Z,41.54
2018-11-01T03:15:14.250Z,40.97
2018-11-01T03:16:14.224Z,41.06
2018-11-01T03:17:14.233Z,40.69
2018-11-01T03:18:14.167Z,40.69
2018-11-01T03:19:14.139Z,40.97
2018-11-01T03:20:14.119Z,43.82
2018-11-01T03:21:14.084Z,43.72
2018-11-01T03:22:14.055Z,44.01
2018-11-01T03:23:14.032Z,44.20
2018-11-01T03:24:14.003Z,43.82
2018-11-01T03:25:13.980Z,43.91
2018-11-01T03:26:13.954Z,42.39
2018-11-01T03:27:13.918Z,41.25
2018-11-01T03:28:13.890Z,40.69
2018-11-01T03:29:13.863Z,40.97
2018-11-01T03:30:13.835Z,42.11
2018-11-01T03:31:13.810Z,42.86
2018-11-01T03:32:13.784Z,43.05
2018-11-01T03:33:13.754Z,43.72
2018-11-01T03:34:13.730Z,43.72
2018-11-01T03:35:13.719Z,43.53
2018-11-01T03:36:13.671Z,42.49
2018-11-01T03:37:13.644Z,41.16
2018-11-01T03:38:13.691Z,41.16
2018-11-01T03:39:13.589Z,40.31
2018-11-01T03:40:13.563Z,39.64
2018-11-01T03:41:13.534Z,39.66
2018-11-01T03:42:13.508Z,40.04
2018-11-01T03:43:13.478Z,40.52
2018-11-01T03:44:13.451Z,40.88
2018-11-01T03:45:13.424Z,41.16
2018-11-01T03:46:13.398Z,41.16
2018-11-01T03:47:13.370Z,41.54
2018-11-01T03:48:13.341Z,41.85
2018-11-01T03:49:13.315Z,41.94
2018-11-01T03:50:13.290Z,42.03
2018-11-01T03:51:13.261Z,42.51
2018-11-01T03:52:14.035Z,42.41
2018-11-01T03:53:13.274Z,43.74
2018-11-01T03:54:13.235Z,44.12
2018-11-01T03:55:13.150Z,44.20
2018-11-01T03:56:13.123Z,44.02
2018-11-01T03:57:13.100Z,44.60
2018-11-01T03:58:13.068Z,44.79
2018-11-01T03:59:13.043Z,44.21
2018-11-01T04:00:13.015Z,44.31
2018-11-01T04:01:12.988Z,43.91
2018-11-01T04:02:12.958Z,44.12
2018-11-01T04:03:12.932Z,44.21
2018-11-01T04:04:12.905Z,43.84
2018-11-01T04:05:12.878Z,43.62
2018-11-01T04:06:12.849Z,44.01
2018-11-01T04:07:12.823Z,44.02
2018-11-01T04:08:12.798Z,44.48
2018-11-01T04:09:12.768Z,44.67
2018-11-01T04:10:12.740Z,44.60
2018-11-01T04:11:12.715Z,44.76
2018-11-01T04:12:12.687Z,45.17
2018-11-01T04:13:12.661Z,44.95
2018-11-01T04:14:14.134Z,45.62
2018-11-01T04:15:12.912Z,45.62
2018-11-01T04:16:12.579Z,45.90
2018-11-01T04:17:12.738Z,45.71
2018-11-01T04:18:12.524Z,45.33
2018-11-01T04:19:12.497Z,45.24
2018-11-01T04:20:12.469Z,44.01
2018-11-01T04:21:12.443Z,43.72
2018-11-01T04:22:12.416Z,45.24
2018-11-01T04:23:12.432Z,45.14
2018-11-01T04:24:12.360Z,44.95
2018-11-01T04:25:12.333Z,44.76
2018-11-01T04:26:12.314Z,43.72
2018-11-01T04:27:12.280Z,43.53
2018-11-01T04:28:12.253Z,42.89
2018-11-01T04:29:12.225Z,42.11
2018-11-01T04:30:12.199Z,41.56
2018-11-01T04:31:12.171Z,41.85
2018-11-01T04:32:12.143Z,42.60
2018-11-01T04:33:12.161Z,42.22
2018-11-01T04:34:12.089Z,42.32
2018-11-01T04:35:12.061Z,42.22
2018-11-01T04:36:12.047Z,42.22
2018-11-01T04:37:12.008Z,42.58
2018-11-01T04:38:11.979Z,42.32
2018-11-01T04:39:11.953Z,42.41
2018-11-01T04:40:11.925Z,42.70
2018-11-01T04:41:11.898Z,42.22
2018-11-01T04:42:11.870Z,42.32
2018-11-01T04:43:11.897Z,42.32
2018-11-01T04:44:11.822Z,42.13
2018-11-01T04:45:11.842Z,42.13
2018-11-01T04:46:11.769Z,42.41
2018-11-01T04:47:11.746Z,42.70
2018-11-01T04:48:11.708Z,42.98
2018-11-01T04:49:11.681Z,42.89
2018-11-01T04:50:11.658Z,43.36
2018-11-01T04:51:11.626Z,43.55
2018-11-01T04:52:11.606Z,43.74
2018-11-01T04:53:11.574Z,43.93
2018-11-01T04:54:11.545Z,43.65
2018-11-01T04:55:11.517Z,44.21
2018-11-01T04:56:11.492Z,44.12
2018-11-01T04:57:11.467Z,44.79
2018-11-01T04:58:11.436Z,44.60
2018-11-01T04:59:11.411Z,44.88
2018-11-01T05:00:11.384Z,44.69
2018-11-01T05:01:11.357Z,44.60
2018-11-01T05:02:11.328Z,44.79
2018-11-01T05:03:13.555Z,44.79
2018-11-01T05:04:11.277Z,43.93
2018-11-01T05:05:11.384Z,43.74
2018-11-01T05:06:11.220Z,43.93
2018-11-01T05:07:11.193Z,44.02
2018-11-01T05:08:11.214Z,44.12
2018-11-01T05:09:11.139Z,43.74
2018-11-01T05:10:11.112Z,43.74
2018-11-01T05:11:11.084Z,43.74
2018-11-01T05:12:11.057Z,44.21
2018-11-01T05:13:11.031Z,44.31
2018-11-01T05:14:11.003Z,44.88
2018-11-01T05:15:11.020Z,44.98
2018-11-01T05:16:10.949Z,44.79
2018-11-01T05:17:10.922Z,44.79
2018-11-01T05:18:10.895Z,44.31
2018-11-01T05:19:10.867Z,44.79
2018-11-01T05:20:11.593Z,44.21
2018-11-01T05:21:10.815Z,44.31
2018-11-01T05:22:10.787Z,44.12
2018-11-01T05:23:10.761Z,44.79
2018-11-01T05:24:10.734Z,45.92
2018-11-01T05:25:10.709Z,46.88
2018-11-01T05:26:10.679Z,47.82
2018-11-01T05:27:10.652Z,49.34
2018-11-01T05:28:10.625Z,50.10
2018-11-01T05:29:10.600Z,50.76
2018-11-01T05:30:10.573Z,51.24
2018-11-01T05:31:10.546Z,51.52
2018-11-01T05:32:10.517Z,52.47
2018-11-01T05:33:10.491Z,52.37
2018-11-01T05:34:10.470Z,52.85
2018-11-01T05:35:10.438Z,53.04
2018-11-01T05:36:10.409Z,53.42
2018-11-01T05:37:10.381Z,53.33
2018-11-01T05:38:10.398Z,53.23
2018-11-01T05:39:10.327Z,53.42
2018-11-01T05:40:10.300Z,53.70
2018-11-01T05:41:10.274Z,54.75
2018-11-01T05:42:11.760Z,55.89
2018-11-01T05:43:10.219Z,55.51
2018-11-01T05:44:10.192Z,56.27
2018-11-01T05:45:10.166Z,56.65
2018-11-01T05:46:10.137Z,57.03
2018-11-01T05:47:10.114Z,57.21
2018-11-01T05:48:12.334Z,57.88
2018-11-01T05:49:10.055Z,58.64
2018-11-01T05:50:10.027Z,59.62
2018-11-01T05:51:10.001Z,60.28
2018-11-01T05:52:09.973Z,61.42
2018-11-01T05:53:09.947Z,61.90
2018-11-01T05:54:09.918Z,62.08
2018-11-01T05:55:09.892Z,62.75
2018-11-01T05:56:09.864Z,63.98
2018-11-01T05:57:09.838Z,64.75
2018-11-01T05:58:09.811Z,66.17
2018-11-01T05:59:09.783Z,67.79
2018-11-01T06:00:09.756Z,69.49
2018-11-01T06:01:09.730Z,70.44
2018-11-01T06:02:09.702Z,71.39
2018-11-01T06:03:09.675Z,71.48
2018-11-01T06:04:09.648Z,72.81
2018-11-01T06:05:09.620Z,73.29
2018-11-01T06:06:09.593Z,72.81
2018-11-01T06:07:09.565Z,73.19
2018-11-01T06:08:09.539Z,73.57
2018-11-01T06:09:09.511Z,74.05
2018-11-01T06:10:09.484Z,74.71
2018-11-01T06:11:09.476Z,74.90
2018-11-01T06:12:09.467Z,74.71
2018-11-01T06:13:09.404Z,74.52
2018-11-01T06:14:09.376Z,74.15
2018-11-01T06:15:09.349Z,74.43
2018-11-01T06:16:09.322Z,74.43
2018-11-01T06:17:09.296Z,74.90
2018-11-01T06:18:09.268Z,75.09
2018-11-01T06:19:09.241Z,75.00
2018-11-01T06:20:09.214Z,74.62
2018-11-01T06:21:09.189Z,74.52
2018-11-01T06:22:09.161Z,74.62
2018-11-01T06:23:09.133Z,74.71
2018-11-01T06:24:09.108Z,75.85
2018-11-01T06:25:09.080Z,76.14
2018-11-01T06:26:09.053Z,76.71
2018-11-01T06:27:09.028Z,77.12
2018-11-01T06:28:09.001Z,77.47
2018-11-01T06:29:08.974Z,77.41
2018-11-01T06:30:11.965Z,77.31
2018-11-01T06:31:08.921Z,77.56
2018-11-01T06:32:08.893Z,78.08
2018-11-01T06:33:08.870Z,78.45
2018-11-01T06:34:08.839Z,77.89
2018-11-01T06:35:08.813Z,77.60
2018-11-01T06:36:11.037Z,78.08
2018-11-01T06:37:08.761Z,77.12
2018-11-01T06:38:08.731Z,76.93
2018-11-01T06:39:08.704Z,78.13
2018-11-01T06:40:08.678Z,78.13
2018-11-01T06:41:08.652Z,77.09
2018-11-01T06:42:08.624Z,75.67
2018-11-01T06:43:08.597Z,73.57
2018-11-01T06:44:08.571Z,74.15
2018-11-01T06:45:08.545Z,73.19
2018-11-01T06:46:08.517Z,73.38
2018-11-01T06:47:08.490Z,72.44
2018-11-01T06:48:08.466Z,73.29
2018-11-01T06:49:08.437Z,73.00
2018-11-01T06:50:08.409Z,72.63
2018-11-01T06:51:08.383Z,73.00
2018-11-01T06:52:08.356Z,73.86
2018-11-01T06:53:09.830Z,75.00
2018-11-01T06:54:08.303Z,75.57
2018-11-01T06:55:08.275Z,76.14
2018-11-01T06:56:08.249Z,77.98
2018-11-01T06:57:08.222Z,79.60
2018-11-01T06:58:08.200Z,81.68
2018-11-01T06:59:09.079Z,82.73
2018-11-01T07:00:08.142Z,84.16
2018-11-01T07:01:08.115Z,84.53
2018-11-01T07:02:08.087Z,84.34
2018-11-01T07:03:08.062Z,84.91
2018-11-01T07:04:08.034Z,84.53
2018-11-01T07:05:08.009Z,84.82
2018-11-01T07:06:07.980Z,83.87
2018-11-01T07:07:07.954Z,83.20
2018-11-01T07:08:07.928Z,83.39
2018-11-01T07:09:07.900Z,83.11
2018-11-01T07:10:13.877Z,82.35
2018-11-01T07:11:07.845Z,83.11
2018-11-01T07:12:07.819Z,82.07
2018-11-01T07:13:07.792Z,82.92
2018-11-01T07:14:07.765Z,82.26
2018-11-01T07:15:07.747Z,83.01
2018-11-01T07:16:07.713Z,82.82
2018-11-01T07:17:07.775Z,82.40
2018-11-01T07:18:07.659Z,80.74
2018-11-01T07:19:07.632Z,80.79
2018-11-01T07:20:07.608Z,80.26
2018-11-01T07:21:07.579Z,81.26
2018-11-01T07:22:07.550Z,79.36
2018-11-01T07:23:07.525Z,78.89
2018-11-01T07:24:07.496Z,78.99
2018-11-01T07:25:07.498Z,78.42
2018-11-01T07:26:07.548Z,79.65
2018-11-01T07:27:07.416Z,79.55
2018-11-01T07:28:07.389Z,79.17
2018-11-01T07:29:07.364Z,79.65
2018-11-01T07:30:07.335Z,79.27
2018-11-01T07:31:07.310Z,79.84
2018-11-01T07:32:10.285Z,80.22
2018-11-01T07:33:07.255Z,79.55
2018-11-01T07:34:07.228Z,79.69
2018-11-01T07:35:07.201Z,79.03
2018-11-01T07:36:07.174Z,78.64
2018-11-01T07:37:07.149Z,79.69
2018-11-01T07:38:07.120Z,81.49
2018-11-01T07:39:07.096Z,80.93
2018-11-01T07:40:07.178Z,82.31
2018-11-01T07:41:07.042Z,80.26
2018-11-01T07:42:07.015Z,80.93
2018-11-01T07:43:06.987Z,80.35
2018-11-01T07:44:06.962Z,83.30
2018-11-01T07:45:06.935Z,83.87
2018-11-01T07:46:06.909Z,83.20
2018-11-01T07:47:06.880Z,83.20
2018-11-01T07:48:06.855Z,82.35
2018-11-01T07:49:06.830Z,84.72
2018-11-01T07:50:06.801Z,84.34
2018-11-01T07:51:06.776Z,83.78
2018-11-01T07:52:06.747Z,83.87
2018-11-01T07:53:06.727Z,84.44
2018-11-01T07:54:06.693Z,84.82
2018-11-01T07:55:06.669Z,85.11
2018-11-01T07:56:06.642Z,84.53
2018-11-01T07:57:06.614Z,84.25
2018-11-01T07:58:06.589Z,85.30
2018-11-01T07:59:06.561Z,85.96
2018-11-01T08:00:06.536Z,87.29
2018-11-01T08:01:06.509Z,86.72
2018-11-01T08:02:06.482Z,86.53
2018-11-01T08:03:06.456Z,86.82
2018-11-01T08:04:06.429Z,87.01
2018-11-01T08:05:06.402Z,86.63
2018-11-01T08:06:06.386Z,87.19
2018-11-01T08:07:06.349Z,87.48
2018-11-01T08:08:06.322Z,87.67
2018-11-01T08:09:06.297Z,88.34
2018-11-01T08:10:06.270Z,88.34
2018-11-01T08:11:06.242Z,89.19
2018-11-01T08:12:06.216Z,89.28
2018-11-01T08:13:06.189Z,88.71
2018-11-01T08:14:06.162Z,88.71
2018-11-01T08:15:06.136Z,88.90
2018-11-01T08:16:06.110Z,87.86
2018-11-01T08:17:06.083Z,86.82
2018-11-01T08:18:06.058Z,88.53
2018-11-01T08:19:06.041Z,87.95
2018-11-01T08:20:06.242Z,89.38
2018-11-01T08:21:06.176Z,89.00
2018-11-01T08:22:05.950Z,89.47
2018-11-01T08:23:05.924Z,90.05
2018-11-01T08:24:05.899Z,89.04
2018-11-01T08:25:05.873Z,90.33
2018-11-01T08:26:05.845Z,89.71
2018-11-01T08:27:05.818Z,89.23
2018-11-01T08:28:05.862Z,89.61
2018-11-01T08:29:05.766Z,89.61
2018-11-01T08:30:05.738Z,89.61
2018-11-01T08:31:05.715Z,89.71
2018-11-01T08:32:05.686Z,89.42
2018-11-01T08:33:05.662Z,89.14
2018-11-01T08:34:05.636Z,91.23
2018-11-01T08:35:05.609Z,91.23
2018-11-01T08:36:05.583Z,91.52
2018-11-01T08:37:05.557Z,91.13
2018-11-01T08:38:05.534Z,92.85
2018-11-01T08:39:05.554Z,91.52
2018-11-01T08:40:05.478Z,92.56
2018-11-01T08:41:05.454Z,95.70
2018-11-01T08:42:05.426Z,96.74
2018-11-01T08:43:05.403Z,94.74
2018-11-01T08:44:05.376Z,95.84
2018-11-01T08:45:05.350Z,96.03
2018-11-01T08:46:05.326Z,95.75
2018-11-01T08:47:05.297Z,96.22
2018-11-01T08:48:05.271Z,98.03
2018-11-01T08:49:05.246Z,97.17
2018-11-01T08:50:05.251Z,97.74
2018-11-01T08:51:05.195Z,98.60
2018-11-01T08:52:05.170Z,99.93
2018-11-01T08:53:05.144Z,99.31
2018-11-01T08:54:05.118Z,99.99
2018-11-01T08:55:05.093Z,99.99
2018-11-01T08:56:05.084Z,99.99
2018-11-01T08:57:05.044Z,99.99
2018-11-01T08:58:05.017Z,99.99
2018-11-01T08:59:04.993Z,99.99
2018-11-01T09:00:04.969Z,99.99
2018-11-01T09:01:04.943Z,99.99
2018-11-01T09:02:04.918Z,99.99
2018-11-01T09:03:04.893Z,99.99
2018-11-01T09:04:04.975Z,99.99
2018-11-01T09:05:04.845Z,99.99
2018-11-01T09:06:04.820Z,99.99
2018-11-01T09:07:04.800Z,99.99
2018-11-01T09:08:04.791Z,99.99
2018-11-01T09:09:04.746Z,99.99
2018-11-01T09:10:04.721Z,99.99
2018-11-01T09:11:04.697Z,99.99
2018-11-01T09:12:04.678Z,99.99
2018-11-01T09:13:04.699Z,99.99
2018-11-01T09:14:04.625Z,99.99
2018-11-01T09:15:04.600Z,99.99
2018-11-01T09:16:04.579Z,99.99
2018-11-01T09:17:04.552Z,99.99
2018-11-01T09:18:04.599Z,99.99
2018-11-01T09:19:06.798Z,99.99
2018-11-01T09:20:04.479Z,99.99
2018-11-01T09:21:04.456Z,99.99
2018-11-01T09:22:04.431Z,99.99
2018-11-01T09:23:04.408Z,99.99
2018-11-01T09:24:04.386Z,99.99
2018-11-01T09:25:04.359Z,99.99
2018-11-01T09:26:04.336Z,99.99
2018-11-01T09:27:04.477Z,99.99
2018-11-01T09:28:04.290Z,99.99
2018-11-01T09:29:04.263Z,99.99
2018-11-01T09:30:04.238Z,99.99
2018-11-01T09:31:04.213Z,99.99
2018-11-01T09:32:04.189Z,99.99
2018-11-01T09:33:04.165Z,99.99
2018-11-01T09:34:04.140Z,99.99
2018-11-01T09:35:04.118Z,99.99
2018-11-01T09:36:04.091Z,99.99
2018-11-01T09:37:04.067Z,99.99
2018-11-01T09:38:04.045Z,99.99
2018-11-01T09:39:04.019Z,99.99
2018-11-01T09:40:03.995Z,99.99
2018-11-01T09:41:03.971Z,99.99
2018-11-01T09:42:03.945Z,99.99
2018-11-01T09:43:03.920Z,99.99
2018-11-01T09:44:03.895Z,99.99
2018-11-01T09:45:03.875Z,99.99
2018-11-01T09:46:03.973Z,99.99
2018-11-01T09:47:04.115Z,99.99
2018-11-01T09:48:03.799Z,99.99
2018-11-01T09:49:03.773Z,99.99
2018-11-01T09:50:03.748Z,99.99
2018-11-01T09:51:03.723Z,99.99
2018-11-01T09:52:03.700Z,99.99
2018-11-01T09:53:03.674Z,99.99
2018-11-01T09:54:03.656Z,99.99
2018-11-01T09:55:03.625Z,99.99
2018-11-01T09:56:03.676Z,99.99
2018-11-01T09:57:03.577Z,99.99
2018-11-01T09:58:03.551Z,99.99
2018-11-01T09:59:03.527Z,99.99
2018-11-01T10:00:03.503Z,99.99
2018-11-01T10:01:03.491Z,99.99
2018-11-01T10:02:03.454Z,99.99
2018-11-01T10:03:03.431Z,99.99
2018-11-01T10:04:03.406Z,99.99
2018-11-01T10:05:03.383Z,99.99
2018-11-01T10:06:03.455Z,99.99
2018-11-01T10:07:03.388Z,99.99
2018-11-01T10:08:03.310Z,99.99
2018-11-01T10:09:03.286Z,99.99
2018-11-01T10:10:03.261Z,99.99
2018-11-01T10:11:03.235Z,99.99
2018-11-01T10:12:03.211Z,99.99
2018-11-01T10:13:03.190Z,99.99
2018-11-01T10:14:03.163Z,99.99
2018-11-01T10:15:03.227Z,99.99
2018-11-01T10:16:03.180Z,99.99
2018-11-01T10:17:03.315Z,99.99
2018-11-01T10:18:04.132Z,99.99
2018-11-01T10:19:03.042Z,99.99
2018-11-01T10:20:03.018Z,99.99
2018-11-01T10:21:03.049Z,99.99
2018-11-01T10:22:03.111Z,99.99
2018-11-01T10:23:03.055Z,99.99
2018-11-01T10:24:02.923Z,99.99
2018-11-01T10:25:02.898Z,99.99
2018-11-01T10:26:02.881Z,99.99
2018-11-01T10:27:02.850Z,99.99
2018-11-01T10:28:02.831Z,99.99
2018-11-01T10:29:02.803Z,99.99
2018-11-01T10:30:02.781Z,99.99
2018-11-01T10:31:02.753Z,99.99
2018-11-01T10:32:02.730Z,99.99
2018-11-01T10:33:02.711Z,99.99
2018-11-01T10:34:02.841Z,99.99
2018-11-01T10:35:02.658Z,99.99
2018-11-01T10:36:02.635Z,99.99
2018-11-01T10:37:02.612Z,99.99
2018-11-01T10:38:02.587Z,99.99
2018-11-01T10:39:02.562Z,99.99
2018-11-01T10:40:02.576Z,99.99
2018-11-01T10:41:02.516Z,99.99
2018-11-01T10:42:02.490Z,99.99
2018-11-01T10:43:02.467Z,99.99
2018-11-01T10:44:02.446Z,99.99
2018-11-01T10:45:02.420Z,99.99
2018-11-01T10:46:02.395Z,99.99
2018-11-01T10:47:02.373Z,99.99
2018-11-01T10:48:02.349Z,99.99
2018-11-01T10:49:02.327Z,99.99
2018-11-01T10:50:03.054Z,99.99
2018-11-01T10:51:02.278Z,99.99
2018-11-01T10:52:02.253Z,99.99
2018-11-01T10:53:02.229Z,99.99
2018-11-01T10:54:02.263Z,99.99
2018-11-01T10:55:02.183Z,99.99
2018-11-01T10:56:02.158Z,99.99
2018-11-01T10:57:02.135Z,99.99
2018-11-01T10:58:02.113Z,99.99
2018-11-01T10:59:02.090Z,99.99
2018-11-01T11:00:02.200Z,99.99
2018-11-01T11:01:02.089Z,99.99
2018-11-01T11:02:02.018Z,99.99
2018-11-01T11:03:01.998Z,99.99
2018-11-01T11:04:01.970Z,99.99
2018-11-01T11:05:01.945Z,99.99
2018-11-01T11:06:01.927Z,99.99
2018-11-01T11:07:01.899Z,99.99
2018-11-01T11:08:01.874Z,99.99
2018-11-01T11:09:01.850Z,99.99
2018-11-01T11:10:01.827Z,99.99
2018-11-01T11:11:01.801Z,99.99
2018-11-01T11:12:01.781Z,99.99
2018-11-01T11:13:01.754Z,99.99
2018-11-01T11:14:01.731Z,99.99
2018-11-01T11:15:01.712Z,99.99
2018-11-01T11:16:01.684Z,99.99
2018-11-01T11:17:01.661Z,99.99
2018-11-01T11:18:01.636Z,99.99
2018-11-01T11:19:01.616Z,99.99
2018-11-01T11:20:01.633Z,99.99
2018-11-01T11:21:01.939Z,99.99
2018-11-01T11:22:01.541Z,99.99
2018-11-01T11:23:01.516Z,99.99
2018-11-01T11:24:01.493Z,99.99
2018-11-01T11:25:01.469Z,99.99
2018-11-01T11:26:01.446Z,99.99
2018-11-01T11:27:01.422Z,99.99
2018-11-01T11:28:01.398Z,99.99
2018-11-01T11:29:01.375Z,99.99
2018-11-01T11:30:01.394Z,99.99
2018-11-01T11:31:01.329Z,99.99
2018-11-01T11:32:01.304Z,99.99
2018-11-01T11:33:01.281Z,99.99
2018-11-01T11:34:01.256Z,99.99
2018-11-01T11:35:01.234Z,99.99
2018-11-01T11:36:01.314Z,99.99
2018-11-01T11:37:01.188Z,99.99
2018-11-01T11:38:01.162Z,99.99
2018-11-01T11:39:01.228Z,99.99
2018-11-01T11:40:01.120Z,99.99
2018-11-01T11:41:01.097Z,99.99
2018-11-01T11:42:01.070Z,99.99
2018-11-01T11:43:01.045Z,99.99
2018-11-01T11:44:01.024Z,99.99
2018-11-01T11:45:00.999Z,99.99
2018-11-01T11:46:00.978Z,99.99
2018-11-01T11:47:00.952Z,99.99
2018-11-01T11:48:00.928Z,99.99
2018-11-01T11:49:03.157Z,99.99
2018-11-01T11:50:00.880Z,99.99
2018-11-01T11:51:00.857Z,99.99
2018-11-01T11:52:00.834Z,99.99
2018-11-01T11:53:00.812Z,99.99
2018-11-01T11:54:00.788Z,99.99
2018-11-01T11:55:00.764Z,99.99
2018-11-01T11:56:00.743Z,99.99
2018-11-01T11:57:00.788Z,99.99
2018-11-01T11:58:00.695Z,99.99
2018-11-01T11:59:00.671Z,99.99
2018-11-01T12:00:00.647Z,99.99
2018-11-01T12:01:00.624Z,99.99
2018-11-01T12:02:00.600Z,99.99
2018-11-01T12:03:00.577Z,99.99
2018-11-01T12:04:00.555Z,99.99
2018-11-01T12:05:00.531Z,99.99
2018-11-01T12:06:00.548Z,99.99
2018-11-01T12:07:00.485Z,99.99
2018-11-01T12:08:00.461Z,99.99
2018-11-01T12:09:00.437Z,99.99
2018-11-01T12:10:00.414Z,99.99
2018-11-01T12:11:00.392Z,99.99
2018-11-01T12:12:00.368Z,99.99
2018-11-01T12:13:00.348Z,99.99
2018-11-01T12:14:00.383Z,99.99
2018-11-01T12:15:00.298Z,99.99
2018-11-01T12:16:01.777Z,99.99
2018-11-01T12:17:00.253Z,99.99
2018-11-01T12:18:00.228Z,99.99
2018-11-01T12:19:00.205Z,99.99
2018-11-01T12:20:00.182Z,99.99
2018-11-01T12:21:00.160Z,99.99
2018-11-01T12:22:04.640Z,99.99
2018-11-01T12:23:00.114Z,99.99
2018-11-01T12:24:00.091Z,99.99
2018-11-01T12:25:00.069Z,99.99
2018-11-01T12:26:00.043Z,99.99
2018-11-01T12:27:00.026Z,99.99
2018-11-01T12:27:59.997Z,99.99
2018-11-01T12:29:00.058Z,99.99
2018-11-01T12:29:59.950Z,99.99
2018-11-01T12:30:59.930Z,99.99
2018-11-01T12:31:59.905Z,99.99
2018-11-01T12:32:59.884Z,99.99
2018-11-01T12:33:59.912Z,99.99
2018-11-01T12:34:59.897Z,99.99
2018-11-01T12:35:59.864Z,99.99
2018-11-01T12:36:59.791Z,99.99
2018-11-01T12:37:59.765Z,99.99
2018-11-01T12:38:59.744Z,99.99
2018-11-01T12:39:59.725Z,99.99
2018-11-01T12:40:59.698Z,99.99
2018-11-01T12:41:59.673Z,99.99
2018-11-01T12:42:59.650Z,99.99
2018-11-01T12:43:59.629Z,99.99
2018-11-01T12:44:59.606Z,99.99
2018-11-01T12:45:59.581Z,99.99
2018-11-01T12:46:59.559Z,99.99
2018-11-01T12:47:59.536Z,99.99
2018-11-01T12:49:00.265Z,99.99
2018-11-01T12:49:59.572Z,99.99
2018-11-01T12:50:59.468Z,99.99
2018-11-01T12:51:59.445Z,99.99